Alvaton, Kentucky
Current Conditions -  °F | °C
As of 4:53 PM on Monday 24 Nov 2014 (Local Time) from KBWG Reporting Station
Clear Clear  
Wind Chill: 52°   Ceiling: Unl
Heat Index: 52°   Visibility: 10mi
Dew Point: 33°   Wind: 12mph
Humidity: 49%   Direction: 250°WSW
Pressure: 29.86"   Gusts: NA
Location:  36.87°N, 86.35°W
Report Text: KBWG 242253Z AUTO 25010KT 10SM CLR 11/01 A2986 RMK AO2 SLP111 T01110006
Loading
Personal Weather Stations






























Interactive Weather Map New forecast layout! Learn more

10-Day Weather Forecast

Advertisements
Track Severe Weather on mobile